Time;durP1;ratioP1;P1;durP2;ratioP2;P2;SDS_P1;SDS_P2;PMS_P1;PMS_P2;Temp;Humidity;BMP_temperature;BMP_pressure;BME280_temperature;BME280_humidity;BME280_pressure;Samples;Min_cycle;Max_cycle;Signal;HPM_P1;HPM_P2
2022/09/13 00:00:32;;;;;;;0.08;0.08;;;;;;;;;;5064584;28;20028;-78
2022/09/13 00:02:59;;;;;;;0.00;0.00;;;;;;;;;;5096641;28;20095;-77
2022/09/13 00:05:25;;;;;;;0.00;0.00;;;;;;;;;;4992961;28;20472;-77
2022/09/13 00:07:51;;;;;;;6.05;5.78;;;;;;;;;;5022490;28;20057;-78
2022/09/13 00:10:18;;;;;;;0.00;0.00;;;;;;;;;;5032161;28;20037;-78
2022/09/13 00:12:44;;;;;;;0.00;0.00;;;;;;;;;;5014278;28;20353;-79
2022/09/13 00:15:11;;;;;;;0.10;0.10;;;;;;;;;;4989088;28;20030;-78
2022/09/13 00:17:37;;;;;;;0.00;0.00;;;;;;;;;;4991043;28;20038;-78
2022/09/13 00:20:04;;;;;;;0.00;0.00;;;;;;;;;;5008153;28;20031;-78
2022/09/13 00:22:30;;;;;;;0.00;0.00;;;;;;;;;;4990640;28;20338;-78
2022/09/13 00:24:57;;;;;;;0.22;0.22;;;;;;;;;;5008874;28;20032;-78
2022/09/13 00:27:23;;;;;;;0.00;0.00;;;;;;;;;;5001431;28;20155;-78
2022/09/13 00:29:50;;;;;;;0.20;0.20;;;;;;;;;;4991969;28;20111;-78
2022/09/13 00:32:16;;;;;;;0.00;0.00;;;;;;;;;;4990758;28;20033;-78
2022/09/13 00:34:43;;;;;;;0.00;0.00;;;;;;;;;;4992452;28;20155;-77
2022/09/13 00:37:09;;;;;;;0.00;0.00;;;;;;;;;;5061722;28;20038;-78
2022/09/13 00:39:36;;;;;;;0.00;0.00;;;;;;;;;;4992982;28;20027;-78
2022/09/13 00:42:02;;;;;;;0.00;0.00;;;;;;;;;;4992998;28;20472;-77
2022/09/13 00:44:47;;;;;;;0.00;0.00;;;;;;;;;;4992421;28;20240;-77
2022/09/13 00:47:15;;;;;;;0.00;0.00;;;;;;;;;;4992175;28;20369;-77
2022/09/13 00:49:42;;;;;;;0.00;0.00;;;;;;;;;;4992643;28;20105;-78
2022/09/13 00:52:13;;;;;;;0.15;0.15;;;;;;;;;;5027025;28;20047;-78
2022/09/13 00:54:45;;;;;;;0.00;0.00;;;;;;;;;;5010028;28;20034;-78
2022/09/13 00:57:13;;;;;;;0.00;0.00;;;;;;;;;;5025396;28;20110;-78
2022/09/13 00:59:42;;;;;;;0.00;0.00;;;;;;;;;;5009722;28;20154;-78
2022/09/13 01:02:09;;;;;;;0.00;0.00;;;;;;;;;;4993734;28;20031;-78
2022/09/13 01:04:36;;;;;;;0.00;0.00;;;;;;;;;;4991771;28;20022;-78
2022/09/13 01:07:06;;;;;;;0.08;0.08;;;;;;;;;;4990851;28;20022;-78
2022/09/13 01:09:35;;;;;;;0.00;0.00;;;;;;;;;;5016385;28;20100;-78
2022/09/13 01:12:07;;;;;;;0.28;0.28;;;;;;;;;;5013083;28;20056;-77
2022/09/13 01:14:34;;;;;;;0.00;0.00;;;;;;;;;;5011157;28;20069;-78
2022/09/13 01:17:00;;;;;;;1.65;1.38;;;;;;;;;;5015470;28;20024;-77
2022/09/13 01:19:27;;;;;;;0.00;0.00;;;;;;;;;;4992401;28;20035;-78
2022/09/13 01:21:53;;;;;;;0.00;0.00;;;;;;;;;;5028415;28;20035;-78
2022/09/13 01:24:41;;;;;;;0.00;0.00;;;;;;;;;;4992150;28;20112;-77
2022/09/13 01:27:19;;;;;;;0.00;0.00;;;;;;;;;;4994817;28;20039;-77
2022/09/13 01:29:59;;;;;;;0.00;0.00;;;;;;;;;;4988156;28;20403;-78
2022/09/13 01:32:40;;;;;;;0.00;0.00;;;;;;;;;;5043544;28;20485;-77
2022/09/13 01:35:13;;;;;;;0.00;0.00;;;;;;;;;;5003798;28;20027;-79
2022/09/13 01:37:46;;;;;;;0.00;0.00;;;;;;;;;;4997843;28;20026;-78
2022/09/13 01:40:13;;;;;;;0.52;0.52;;;;;;;;;;4993000;28;20109;-78
2022/09/13 01:42:39;;;;;;;0.47;0.47;;;;;;;;;;4989798;28;20132;-79
2022/09/13 01:45:17;;;;;;;0.00;0.00;;;;;;;;;;4988322;28;20018;-78
2022/09/13 01:47:56;;;;;;;0.10;0.10;;;;;;;;;;5075455;28;20109;-78
2022/09/13 01:50:29;;;;;;;0.00;0.00;;;;;;;;;;4990720;28;20423;-78
2022/09/13 01:52:57;;;;;;;0.00;0.00;;;;;;;;;;4991579;28;20096;-79
2022/09/13 01:55:38;;;;;;;0.00;0.00;;;;;;;;;;4988145;28;20071;-79
2022/09/13 01:58:08;;;;;;;0.00;0.00;;;;;;;;;;4984793;28;20109;-78
2022/09/13 02:00:43;;;;;;;0.00;0.00;;;;;;;;;;4984861;28;20113;-80
2022/09/13 02:03:12;;;;;;;0.00;0.00;;;;;;;;;;4988220;28;20041;-78
2022/09/13 02:05:43;;;;;;;0.00;0.00;;;;;;;;;;4989620;28;20023;-79
2022/09/13 02:08:14;;;;;;;0.00;0.00;;;;;;;;;;5037502;28;20076;-79
2022/09/13 02:10:52;;;;;;;0.00;0.00;;;;;;;;;;5000220;28;20364;-79
2022/09/13 02:13:21;;;;;;;0.00;0.00;;;;;;;;;;4992325;28;20035;-78
2022/09/13 02:15:48;;;;;;;0.00;0.00;;;;;;;;;;4987911;28;20034;-78
2022/09/13 02:18:18;;;;;;;0.00;0.00;;;;;;;;;;4997419;28;20030;-79
2022/09/13 02:20:47;;;;;;;0.00;0.00;;;;;;;;;;4986741;28;20030;-79
2022/09/13 02:23:15;;;;;;;0.00;0.00;;;;;;;;;;4985113;28;20072;-79
2022/09/13 02:25:43;;;;;;;0.52;0.52;;;;;;;;;;4983596;28;20029;-79
2022/09/13 02:28:12;;;;;;;0.00;0.00;;;;;;;;;;4992425;28;20055;-79
2022/09/13 02:30:43;;;;;;;0.03;0.03;;;;;;;;;;4988734;28;20031;-79
2022/09/13 02:33:15;;;;;;;1.20;1.13;;;;;;;;;;5000744;28;20468;-78
2022/09/13 02:35:56;;;;;;;0.10;0.10;;;;;;;;;;4988425;28;20362;-79
2022/09/13 02:38:28;;;;;;;0.00;0.00;;;;;;;;;;4989087;28;20392;-79
2022/09/13 02:41:00;;;;;;;0.00;0.00;;;;;;;;;;5006468;28;20022;-79
2022/09/13 02:43:34;;;;;;;0.00;0.00;;;;;;;;;;4982013;28;20050;-79
2022/09/13 02:46:13;;;;;;;0.00;0.00;;;;;;;;;;4980937;28;20038;-79
2022/09/13 02:48:58;;;;;;;0.10;0.08;;;;;;;;;;4994701;28;20057;-79
2022/09/13 02:51:44;;;;;;;0.00;0.00;;;;;;;;;;4990832;28;20035;-79
2022/09/13 02:54:19;;;;;;;0.00;0.00;;;;;;;;;;4989520;28;20041;-79
2022/09/13 02:56:51;;;;;;;0.00;0.00;;;;;;;;;;4998222;28;20035;-79
2022/09/13 02:59:22;;;;;;;0.73;0.73;;;;;;;;;;4984766;28;20023;-79
2022/09/13 03:02:08;;;;;;;0.00;0.00;;;;;;;;;;4988265;28;20034;-79
2022/09/13 03:04:35;;;;;;;0.00;0.00;;;;;;;;;;5062089;28;20464;-81
2022/09/13 03:07:04;;;;;;;1.85;1.75;;;;;;;;;;4986604;28;20469;-80
2022/09/13 03:09:31;;;;;;;0.20;0.20;;;;;;;;;;4990753;28;20019;-79
2022/09/13 03:12:16;;;;;;;3.72;2.80;;;;;;;;;;4978551;28;20563;-79
2022/09/13 03:14:43;;;;;;;0.00;0.00;;;;;;;;;;4983445;28;20030;-80
2022/09/13 03:17:09;;;;;;;6.65;4.43;;;;;;;;;;4985575;28;20034;-78
2022/09/13 03:20:11;;;;;;;0.73;0.73;;;;;;;;;;4987814;28;20065;-79
2022/09/13 03:22:50;;;;;;;0.57;0.57;;;;;;;;;;4955456;28;20088;-81
2022/09/13 03:25:28;;;;;;;2.03;1.25;;;;;;;;;;4983810;28;20034;-79
2022/09/13 03:28:01;;;;;;;0.00;0.00;;;;;;;;;;4983927;28;20051;-80
2022/09/13 03:30:27;;;;;;;4.15;3.95;;;;;;;;;;4982534;28;20038;-80
2022/09/13 03:33:02;;;;;;;0.50;0.50;;;;;;;;;;4983361;28;20404;-79
2022/09/13 03:35:38;;;;;;;2.78;2.58;;;;;;;;;;4991943;28;20034;-80
2022/09/13 03:38:16;;;;;;;0.10;0.10;;;;;;;;;;4983724;28;20125;-80
2022/09/13 03:40:48;;;;;;;0.40;0.40;;;;;;;;;;4972846;28;20040;-81
2022/09/13 03:43:36;;;;;;;0.77;0.50;;;;;;;;;;4977450;28;20031;-79
2022/09/13 03:46:05;;;;;;;0.17;0.17;;;;;;;;;;4981084;28;20232;-80
2022/09/13 03:48:36;;;;;;;0.00;0.00;;;;;;;;;;4977346;28;20031;-79
2022/09/13 03:51:02;;;;;;;1.85;1.75;;;;;;;;;;4980529;28;20026;-79
2022/09/13 03:53:30;;;;;;;4.50;4.28;;;;;;;;;;4999321;28;20032;-79
2022/09/13 03:55:56;;;;;;;5.45;1.98;;;;;;;;;;4984579;28;20346;-79
2022/09/13 03:58:23;;;;;;;0.80;0.80;;;;;;;;;;4981285;28;20071;-79
2022/09/13 04:00:49;;;;;;;0.03;0.03;;;;;;;;;;4977648;28;20528;-78
2022/09/13 04:03:16;;;;;;;0.45;0.45;;;;;;;;;;4977614;28;20346;-79
2022/09/13 04:05:42;;;;;;;0.10;0.10;;;;;;;;;;4981076;28;20056;-79
2022/09/13 04:08:09;;;;;;;2.67;2.47;;;;;;;;;;4979484;28;20069;-79
2022/09/13 04:10:36;;;;;;;4.35;1.45;;;;;;;;;;4975377;28;20023;-79
2022/09/13 04:13:03;;;;;;;0.30;0.30;;;;;;;;;;4984314;28;20075;-79
2022/09/13 04:15:32;;;;;;;11.25;4.97;;;;;;;;;;4988622;28;20411;-78
2022/09/13 04:17:59;;;;;;;3.10;0.28;;;;;;;;;;4986525;28;20039;-81
2022/09/13 04:20:28;;;;;;;1.75;1.33;;;;;;;;;;4987769;28;20076;-81
2022/09/13 04:22:57;;;;;;;1.10;0.80;;;;;;;;;;4987842;28;20038;-80
2022/09/13 04:25:24;;;;;;;9.27;2.65;;;;;;;;;;4996476;28;20482;-78
2022/09/13 04:27:58;;;;;;;8.10;3.80;;;;;;;;;;4985821;28;20549;-78
2022/09/13 04:30:25;;;;;;;4.88;1.13;;;;;;;;;;5041913;28;20499;-78
2022/09/13 04:32:57;;;;;;;2.58;1.90;;;;;;;;;;4987921;28;20121;-80
2022/09/13 04:35:23;;;;;;;4.60;4.30;;;;;;;;;;4974626;28;20137;-79
2022/09/13 04:37:50;;;;;;;0.15;0.15;;;;;;;;;;5042168;28;20038;-79
2022/09/13 04:40:16;;;;;;;0.70;0.52;;;;;;;;;;4987495;28;20031;-78
2022/09/13 04:42:46;;;;;;;5.18;2.97;;;;;;;;;;4983780;28;20030;-79
2022/09/13 04:45:13;;;;;;;15.60;13.77;;;;;;;;;;4980163;28;20534;-79
2022/09/13 04:47:39;;;;;;;1.17;0.25;;;;;;;;;;5066216;28;20033;-79
2022/09/13 04:50:06;;;;;;;8.60;6.40;;;;;;;;;;4977809;28;20166;-78
2022/09/13 04:52:32;;;;;;;4.90;1.35;;;;;;;;;;4980362;28;20491;-78
2022/09/13 04:55:00;;;;;;;2.45;0.80;;;;;;;;;;4991128;28;20019;-79
2022/09/13 04:57:27;;;;;;;1.85;1.65;;;;;;;;;;4991108;28;20537;-78
2022/09/13 04:59:53;;;;;;;6.82;3.22;;;;;;;;;;4983046;28;20038;-80
2022/09/13 05:02:20;;;;;;;3.67;3.05;;;;;;;;;;4987196;28;20046;-79
2022/09/13 05:04:46;;;;;;;0.00;0.00;;;;;;;;;;4993918;28;20034;-79
2022/09/13 05:07:13;;;;;;;0.10;0.10;;;;;;;;;;4978149;28;20026;-78
2022/09/13 05:09:39;;;;;;;0.20;0.20;;;;;;;;;;4983538;28;20075;-78
2022/09/13 05:12:05;;;;;;;0.60;0.60;;;;;;;;;;4992959;28;20040;-78
2022/09/13 05:14:32;;;;;;;10.98;10.15;;;;;;;;;;4985139;28;20123;-80
2022/09/13 05:16:58;;;;;;;1.38;1.38;;;;;;;;;;4980343;28;20074;-79
2022/09/13 05:19:24;;;;;;;0.40;0.40;;;;;;;;;;4986653;28;20550;-79
2022/09/13 05:21:51;;;;;;;1.02;0.50;;;;;;;;;;4980314;28;20031;-81
2022/09/13 05:24:17;;;;;;;1.85;1.75;;;;;;;;;;4981191;28;20031;-79
2022/09/13 05:26:43;;;;;;;3.67;1.95;;;;;;;;;;4993140;28;20031;-80
2022/09/13 05:29:10;;;;;;;1.67;0.80;;;;;;;;;;4997019;28;20040;-81
2022/09/13 05:31:38;;;;;;;6.60;2.70;;;;;;;;;;4978593;28;20603;-80
2022/09/13 05:34:06;;;;;;;1.75;1.17;;;;;;;;;;4987945;28;20121;-81
2022/09/13 05:36:33;;;;;;;2.13;2.03;;;;;;;;;;4980698;28;20042;-79
2022/09/13 05:38:59;;;;;;;8.35;7.72;;;;;;;;;;4986207;28;20070;-80
2022/09/13 05:41:26;;;;;;;8.05;4.63;;;;;;;;;;4980408;28;20030;-79
2022/09/13 05:43:52;;;;;;;2.65;2.25;;;;;;;;;;4998518;28;20468;-81
2022/09/13 05:46:22;;;;;;;22.83;4.00;;;;;;;;;;5001929;28;20071;-80
2022/09/13 05:48:49;;;;;;;3.40;2.25;;;;;;;;;;4992940;28;20458;-82
2022/09/13 05:51:20;;;;;;;4.93;2.15;;;;;;;;;;4985577;28;20047;-81
2022/09/13 05:53:47;;;;;;;0.73;0.73;;;;;;;;;;4982305;28;20141;-80
2022/09/13 05:56:18;;;;;;;1.58;1.50;;;;;;;;;;4998398;28;20153;-81
2022/09/13 05:58:47;;;;;;;12.98;6.78;;;;;;;;;;4979475;28;20452;-80
2022/09/13 06:01:14;;;;;;;7.32;3.10;;;;;;;;;;5061795;28;20062;-81
2022/09/13 06:03:41;;;;;;;1.35;1.27;;;;;;;;;;4982964;28;20087;-81
2022/09/13 06:06:07;;;;;;;33.70;7.90;;;;;;;;;;4986332;28;20527;-80
2022/09/13 06:08:37;;;;;;;1.08;1.08;;;;;;;;;;4994761;28;20929;-81
2022/09/13 06:11:04;;;;;;;2.60;0.77;;;;;;;;;;5049904;28;20107;-82
2022/09/13 06:13:31;;;;;;;1.58;0.95;;;;;;;;;;4990352;28;20038;-82
2022/09/13 06:15:59;;;;;;;17.45;6.47;;;;;;;;;;4989042;28;20118;-79
2022/09/13 06:18:25;;;;;;;17.83;3.08;;;;;;;;;;4988600;28;20038;-81
2022/09/13 06:20:59;;;;;;;5.30;3.55;;;;;;;;;;4991579;28;21168;-79
2022/09/13 06:23:27;;;;;;;0.55;0.52;;;;;;;;;;4994359;28;20528;-81
2022/09/13 06:26:05;;;;;;;9.98;2.47;;;;;;;;;;4996514;28;20069;-81
2022/09/13 06:28:32;;;;;;;9.82;4.32;;;;;;;;;;4988192;28;20054;-80
2022/09/13 06:31:05;;;;;;;2.35;2.00;;;;;;;;;;4989509;28;20147;-83
2022/09/13 06:33:32;;;;;;;2.65;2.45;;;;;;;;;;4986892;28;20038;-82
2022/09/13 06:36:09;;;;;;;6.60;3.53;;;;;;;;;;4993057;28;20026;-80
2022/09/13 06:38:36;;;;;;;11.77;4.10;;;;;;;;;;5004915;28;20190;-82
2022/09/13 06:41:06;;;;;;;2.20;2.00;;;;;;;;;;5002110;28;20125;-81
2022/09/13 06:43:33;;;;;;;0.32;0.32;;;;;;;;;;4999540;28;20543;-85
2022/09/13 06:46:00;;;;;;;4.40;2.83;;;;;;;;;;4989428;28;20488;-81
2022/09/13 06:48:27;;;;;;;0.52;0.52;;;;;;;;;;4981321;28;20547;-81
2022/09/13 06:50:57;;;;;;;2.80;2.60;;;;;;;;;;4991782;28;20044;-79
2022/09/13 06:53:23;;;;;;;2.83;1.85;;;;;;;;;;5001087;28;20042;-79
2022/09/13 06:55:59;;;;;;;0.35;0.30;;;;;;;;;;5002245;28;20062;-80
2022/09/13 06:58:26;;;;;;;4.55;0.55;;;;;;;;;;4988183;28;20034;-82
2022/09/13 07:00:53;;;;;;;0.68;0.68;;;;;;;;;;4985378;28;20034;-81
2022/09/13 07:03:19;;;;;;;1.25;0.85;;;;;;;;;;5012795;28;20113;-81
2022/09/13 07:05:46;;;;;;;0.00;0.00;;;;;;;;;;4980068;28;20231;-82
2022/09/13 07:08:12;;;;;;;0.00;0.00;;;;;;;;;;5000258;28;20022;-81
2022/09/13 07:10:38;;;;;;;6.18;3.13;;;;;;;;;;4987094;28;20530;-80
2022/09/13 07:13:05;;;;;;;1.45;0.73;;;;;;;;;;4973578;28;20444;-80
2022/09/13 07:15:31;;;;;;;0.20;0.20;;;;;;;;;;4971732;28;20038;-80
2022/09/13 07:17:58;;;;;;;0.77;0.45;;;;;;;;;;4982205;28;20035;-80
2022/09/13 07:20:24;;;;;;;7.45;1.33;;;;;;;;;;4977917;28;20404;-80
2022/09/13 07:22:51;;;;;;;2.03;0.82;;;;;;;;;;5059706;28;20576;-81
2022/09/13 07:25:18;;;;;;;7.68;2.72;;;;;;;;;;4987990;28;20070;-81
2022/09/13 07:27:48;;;;;;;2.03;1.15;;;;;;;;;;4993501;28;20107;-86
2022/09/13 07:30:14;;;;;;;0.00;0.00;;;;;;;;;;4989959;28;20026;-85
2022/09/13 07:32:41;;;;;;;3.17;2.90;;;;;;;;;;4985294;28;20061;-85
2022/09/13 07:35:07;;;;;;;0.25;0.25;;;;;;;;;;4979543;28;20030;-84
2022/09/13 07:37:34;;;;;;;0.00;0.00;;;;;;;;;;4999006;28;20499;-84
2022/09/13 07:40:00;;;;;;;0.98;0.20;;;;;;;;;;4991856;28;20469;-85
2022/09/13 07:42:26;;;;;;;0.20;0.20;;;;;;;;;;4991417;28;20023;-85
2022/09/13 07:44:53;;;;;;;1.52;1.42;;;;;;;;;;4988137;28;20142;-86
2022/09/13 07:47:19;;;;;;;0.28;0.22;;;;;;;;;;4988769;28;20543;-85
2022/09/13 07:49:46;;;;;;;0.65;0.65;;;;;;;;;;5002434;28;20891;-84
2022/09/13 07:52:12;;;;;;;0.70;0.30;;;;;;;;;;4987807;28;20046;-83
2022/09/13 07:54:38;;;;;;;0.15;0.15;;;;;;;;;;4984819;28;20038;-80
2022/09/13 07:57:05;;;;;;;5.60;0.45;;;;;;;;;;4994204;28;20050;-81
2022/09/13 07:59:31;;;;;;;0.70;0.70;;;;;;;;;;4993105;28;20099;-83
2022/09/13 08:01:57;;;;;;;0.00;0.00;;;;;;;;;;4990456;28;20034;-82
2022/09/13 08:04:25;;;;;;;0.08;0.08;;;;;;;;;;4976383;28;20033;-81
2022/09/13 08:06:51;;;;;;;0.40;0.30;;;;;;;;;;4986792;28;20054;-81
2022/09/13 08:09:17;;;;;;;45.72;9.95;;;;;;;;;;4991317;28;20026;-80
2022/09/13 08:11:45;;;;;;;1.55;1.45;;;;;;;;;;5000372;28;20758;-79
2022/09/13 08:14:17;;;;;;;5.68;4.72;;;;;;;;;;4987773;28;20117;-80
2022/09/13 08:16:43;;;;;;;0.82;0.47;;;;;;;;;;4993689;28;20484;-80
2022/09/13 08:19:14;;;;;;;0.25;0.25;;;;;;;;;;5004929;28;20116;-82
2022/09/13 08:21:44;;;;;;;0.00;0.00;;;;;;;;;;5003902;28;20350;-82
2022/09/13 08:24:17;;;;;;;0.55;0.55;;;;;;;;;;5054158;28;20024;-82
2022/09/13 08:26:43;;;;;;;0.38;0.38;;;;;;;;;;5011739;28;20063;-79
2022/09/13 08:29:10;;;;;;;6.68;0.57;;;;;;;;;;4995038;28;20086;-81
2022/09/13 08:31:37;;;;;;;1.40;0.80;;;;;;;;;;4998349;28;20022;-81
2022/09/13 08:34:03;;;;;;;0.00;0.00;;;;;;;;;;4996910;28;20033;-83
2022/09/13 08:36:32;;;;;;;2.30;1.13;;;;;;;;;;5001266;28;20110;-82
2022/09/13 08:39:00;;;;;;;1.30;1.20;;;;;;;;;;4992237;28;20046;-82
2022/09/13 08:41:29;;;;;;;8.50;6.25;;;;;;;;;;4987811;28;20030;-81
2022/09/13 08:44:02;;;;;;;0.15;0.15;;;;;;;;;;5005582;28;20537;-81
2022/09/13 08:46:58;;;;;;;0.45;0.10;;;;;;;;;;5013338;28;20038;-81
2022/09/13 08:49:29;;;;;;;3.78;1.05;;;;;;;;;;4995753;28;20066;-82
2022/09/13 08:51:59;;;;;;;0.75;0.75;;;;;;;;;;5081790;28;20052;-81
2022/09/13 08:54:25;;;;;;;1.33;1.23;;;;;;;;;;5053575;28;20135;-82
2022/09/13 08:57:07;;;;;;;0.00;0.00;;;;;;;;;;5058455;28;20027;-80
2022/09/13 08:59:56;;;;;;;0.30;0.30;;;;;;;;;;5066371;28;20029;-81
2022/09/13 09:02:30;;;;;;;0.22;0.22;;;;;;;;;;5054303;28;20052;-85
2022/09/13 09:05:15;;;;;;;0.98;0.82;;;;;;;;;;5065727;28;20024;-84
2022/09/13 09:07:44;;;;;;;0.00;0.00;;;;;;;;;;5070231;28;20034;-84
2022/09/13 09:10:15;;;;;;;1.70;1.60;;;;;;;;;;5063000;28;20073;-81
2022/09/13 09:12:47;;;;;;;0.10;0.10;;;;;;;;;;5069732;28;20046;-85
2022/09/13 09:15:28;;;;;;;0.00;0.00;;;;;;;;;;5062520;28;20047;-80
2022/09/13 09:18:01;;;;;;;0.00;0.00;;;;;;;;;;5064795;28;20355;-82
2022/09/13 09:20:40;;;;;;;1.55;1.45;;;;;;;;;;5060777;28;20028;-82
2022/09/13 09:23:17;;;;;;;0.00;0.00;;;;;;;;;;5061639;28;20608;-81
2022/09/13 09:25:43;;;;;;;0.00;0.00;;;;;;;;;;5061782;28;20028;-81
2022/09/13 09:28:14;;;;;;;0.00;0.00;;;;;;;;;;5061217;28;20016;-80
2022/09/13 09:30:43;;;;;;;0.20;0.20;;;;;;;;;;5064003;28;20161;-82
2022/09/13 09:33:25;;;;;;;0.00;0.00;;;;;;;;;;5062040;28;20082;-81
2022/09/13 09:35:56;;;;;;;0.00;0.00;;;;;;;;;;5060735;28;20051;-82
2022/09/13 09:38:34;;;;;;;5.15;4.68;;;;;;;;;;5058643;28;20481;-81
2022/09/13 09:41:04;;;;;;;0.00;0.00;;;;;;;;;;5058950;28;20083;-81
2022/09/13 09:43:37;;;;;;;0.00;0.00;;;;;;;;;;5062321;28;20131;-82
2022/09/13 09:46:07;;;;;;;7.05;6.60;;;;;;;;;;5065850;28;20025;-82
2022/09/13 09:48:43;;;;;;;1.27;0.63;;;;;;;;;;5061258;28;20028;-81
2022/09/13 09:51:11;;;;;;;4.22;3.30;;;;;;;;;;5054848;28;20028;-81
2022/09/13 09:53:44;;;;;;;0.00;0.00;;;;;;;;;;4992994;28;20523;-82
2022/09/13 09:56:14;;;;;;;0.00;0.00;;;;;;;;;;4986734;28;20083;-81
2022/09/13 09:58:45;;;;;;;8.25;0.90;;;;;;;;;;4980985;28;20053;-82
2022/09/13 10:01:16;;;;;;;2.08;1.98;;;;;;;;;;4988327;28;20043;-81
2022/09/13 10:03:54;;;;;;;0.00;0.00;;;;;;;;;;5001069;28;20160;-81
2022/09/13 10:06:27;;;;;;;0.00;0.00;;;;;;;;;;4989661;28;20030;-81
2022/09/13 10:09:05;;;;;;;6.88;3.22;;;;;;;;;;4982383;28;20072;-83
2022/09/13 10:11:45;;;;;;;0.00;0.00;;;;;;;;;;4987452;28;20030;-85
2022/09/13 10:14:35;;;;;;;0.55;0.32;;;;;;;;;;4986672;28;20030;-83
2022/09/13 10:17:04;;;;;;;0.00;0.00;;;;;;;;;;4983395;28;20510;-80
2022/09/13 10:19:34;;;;;;;0.45;0.30;;;;;;;;;;4983580;28;20381;-82
2022/09/13 10:22:04;;;;;;;0.00;0.00;;;;;;;;;;4989745;28;20077;-82
2022/09/13 10:24:31;;;;;;;1.48;1.00;;;;;;;;;;4995538;28;20060;-83
2022/09/13 10:26:58;;;;;;;0.82;0.82;;;;;;;;;;4989570;28;20014;-83
2022/09/13 10:29:26;;;;;;;0.00;0.00;;;;;;;;;;5000947;28;20065;-82
2022/09/13 10:31:56;;;;;;;0.47;0.45;;;;;;;;;;4999708;28;20027;-83
2022/09/13 10:34:25;;;;;;;0.40;0.20;;;;;;;;;;4985256;28;20384;-82
2022/09/13 10:37:10;;;;;;;0.10;0.00;;;;;;;;;;4994970;28;20027;-82
2022/09/13 10:39:37;;;;;;;0.00;0.00;;;;;;;;;;4996129;28;20117;-82
2022/09/13 10:42:03;;;;;;;0.00;0.00;;;;;;;;;;5009763;28;20132;-82
2022/09/13 10:44:29;;;;;;;0.00;0.00;;;;;;;;;;4991695;28;20050;-83
2022/09/13 10:46:56;;;;;;;0.00;0.00;;;;;;;;;;5002846;28;20106;-81
2022/09/13 10:49:36;;;;;;;0.00;0.00;;;;;;;;;;5065341;28;20023;-81
2022/09/13 10:52:23;;;;;;;0.00;0.00;;;;;;;;;;4989397;28;20168;-83
2022/09/13 10:54:50;;;;;;;0.00;0.00;;;;;;;;;;4990129;28;20056;-82
2022/09/13 10:57:28;;;;;;;0.00;0.00;;;;;;;;;;4990884;28;20110;-84
2022/09/13 10:59:55;;;;;;;0.22;0.22;;;;;;;;;;4983134;28;20109;-82
2022/09/13 11:02:32;;;;;;;0.00;0.00;;;;;;;;;;5009602;28;20115;-83
2022/09/13 11:05:11;;;;;;;0.00;0.00;;;;;;;;;;4984287;28;20057;-82
2022/09/13 11:08:00;;;;;;;0.00;0.00;;;;;;;;;;4986324;28;20448;-82
2022/09/13 11:10:32;;;;;;;0.00;0.00;;;;;;;;;;4990083;28;20029;-81
2022/09/13 11:13:17;;;;;;;3.20;3.00;;;;;;;;;;4984015;28;20059;-83
2022/09/13 11:15:56;;;;;;;0.00;0.00;;;;;;;;;;4989992;28;20093;-82
2022/09/13 11:18:25;;;;;;;0.10;0.10;;;;;;;;;;4994802;28;20232;-83
2022/09/13 11:20:56;;;;;;;0.00;0.00;;;;;;;;;;5007239;28;20018;-83
2022/09/13 11:23:34;;;;;;;0.00;0.00;;;;;;;;;;4987100;28;21361;-83
2022/09/13 11:26:13;;;;;;;0.35;0.35;;;;;;;;;;4998307;28;20189;-82
2022/09/13 11:28:43;;;;;;;1.85;1.75;;;;;;;;;;5001626;28;20525;-81
2022/09/13 11:31:28;;;;;;;0.00;0.00;;;;;;;;;;4988053;28;20050;-83
2022/09/13 11:34:03;;;;;;;0.00;0.00;;;;;;;;;;4988620;28;20537;-81
2022/09/13 11:36:29;;;;;;;2.67;0.20;;;;;;;;;;4988130;28;20049;-83
2022/09/13 11:39:16;;;;;;;0.20;0.20;;;;;;;;;;4994758;28;20194;-82
2022/09/13 11:42:01;;;;;;;0.00;0.00;;;;;;;;;;5000453;28;20042;-81
2022/09/13 11:44:39;;;;;;;0.00;0.00;;;;;;;;;;4998931;28;20037;-83
2022/09/13 11:47:16;;;;;;;0.00;0.00;;;;;;;;;;4998640;28;20066;-82
2022/09/13 11:49:48;;;;;;;0.00;0.00;;;;;;;;;;4992806;28;20022;-81
2022/09/13 11:52:20;;;;;;;0.00;0.00;;;;;;;;;;5001104;28;20040;-81
2022/09/13 11:54:46;;;;;;;0.28;0.28;;;;;;;;;;4987240;28;20081;-83
2022/09/13 11:57:17;;;;;;;0.00;0.00;;;;;;;;;;4989450;28;20113;-83
2022/09/13 11:59:46;;;;;;;0.00;0.00;;;;;;;;;;4986268;28;20034;-81
2022/09/13 12:02:12;;;;;;;0.00;0.00;;;;;;;;;;5018216;28;20119;-80
2022/09/13 12:04:45;;;;;;;1.35;1.35;;;;;;;;;;4992745;28;20022;-83
2022/09/13 12:07:15;;;;;;;5.20;0.30;;;;;;;;;;4982658;28;20322;-81
2022/09/13 12:09:47;;;;;;;0.00;0.00;;;;;;;;;;5008662;28;20128;-81
2022/09/13 12:12:14;;;;;;;0.60;0.60;;;;;;;;;;4996067;28;20018;-80
2022/09/13 12:14:46;;;;;;;0.15;0.15;;;;;;;;;;4989640;28;20071;-82
2022/09/13 12:17:17;;;;;;;0.32;0.20;;;;;;;;;;4987312;28;20495;-83
2022/09/13 12:19:49;;;;;;;0.00;0.00;;;;;;;;;;4989533;28;20488;-82
2022/09/13 12:22:16;;;;;;;0.00;0.00;;;;;;;;;;4989273;28;20126;-81
2022/09/13 12:24:42;;;;;;;0.00;0.00;;;;;;;;;;4996940;28;20059;-82
2022/09/13 12:27:20;;;;;;;2.60;2.50;;;;;;;;;;5020389;28;20115;-82
2022/09/13 12:29:50;;;;;;;0.00;0.00;;;;;;;;;;4998411;28;20050;-82
2022/09/13 12:32:19;;;;;;;28.02;25.42;;;;;;;;;;5008736;28;20030;-83
2022/09/13 12:34:55;;;;;;;0.08;0.08;;;;;;;;;;4992864;28;20045;-84
2022/09/13 12:37:40;;;;;;;0.00;0.00;;;;;;;;;;5072657;28;20042;-82
2022/09/13 12:40:22;;;;;;;0.00;0.00;;;;;;;;;;4984862;28;20037;-81
2022/09/13 12:43:00;;;;;;;0.00;0.00;;;;;;;;;;4988682;28;20492;-82
2022/09/13 12:45:42;;;;;;;0.00;0.00;;;;;;;;;;4999115;28;20058;-81
2022/09/13 12:48:11;;;;;;;0.00;0.00;;;;;;;;;;4992558;28;20132;-81
2022/09/13 12:50:45;;;;;;;0.00;0.00;;;;;;;;;;4991037;28;20483;-80
2022/09/13 12:53:30;;;;;;;0.00;0.00;;;;;;;;;;5001554;28;20546;-81
2022/09/13 12:56:15;;;;;;;0.00;0.00;;;;;;;;;;5003578;28;20103;-81
2022/09/13 12:58:41;;;;;;;0.00;0.00;;;;;;;;;;4994913;28;20537;-80
2022/09/13 13:01:11;;;;;;;5.25;5.05;;;;;;;;;;4983471;28;20096;-82
2022/09/13 13:03:49;;;;;;;0.00;0.00;;;;;;;;;;4992182;28;20077;-83
2022/09/13 13:06:24;;;;;;;0.00;0.00;;;;;;;;;;5026601;28;20030;-82
2022/09/13 13:08:52;;;;;;;0.13;0.13;;;;;;;;;;4982769;28;20112;-82
2022/09/13 13:11:22;;;;;;;0.00;0.00;;;;;;;;;;4992394;28;20029;-81
2022/09/13 13:13:56;;;;;;;0.00;0.00;;;;;;;;;;4991909;28;20027;-83
2022/09/13 13:16:28;;;;;;;4.53;4.07;;;;;;;;;;4995287;28;20038;-80
2022/09/13 13:18:58;;;;;;;0.00;0.00;;;;;;;;;;4994427;28;20038;-83
2022/09/13 13:21:32;;;;;;;3.30;3.20;;;;;;;;;;4997431;28;20030;-82
2022/09/13 13:24:20;;;;;;;0.00;0.00;;;;;;;;;;5018912;28;20105;-82
2022/09/13 13:26:52;;;;;;;59.65;15.50;;;;;;;;;;5025310;28;20052;-82
2022/09/13 13:29:22;;;;;;;2.55;1.45;;;;;;;;;;4991818;28;20027;-83
2022/09/13 13:32:02;;;;;;;0.00;0.00;;;;;;;;;;5001882;28;20020;-83
2022/09/13 13:34:32;;;;;;;0.00;0.00;;;;;;;;;;5026972;28;20596;-83
2022/09/13 13:37:02;;;;;;;0.00;0.00;;;;;;;;;;5055007;28;20054;-81
2022/09/13 13:39:28;;;;;;;0.15;0.15;;;;;;;;;;5017546;28;20030;-82
2022/09/13 13:42:21;;;;;;;0.00;0.00;;;;;;;;;;4999450;28;20092;-82
2022/09/13 13:44:53;;;;;;;0.20;0.20;;;;;;;;;;4984340;28;20113;-81
2022/09/13 13:47:19;;;;;;;0.00;0.00;;;;;;;;;;5010989;28;20015;-82
2022/09/13 13:49:53;;;;;;;0.00;0.00;;;;;;;;;;4999930;28;20324;-82
2022/09/13 13:52:23;;;;;;;0.00;0.00;;;;;;;;;;4986887;28;20524;-82
2022/09/13 13:54:52;;;;;;;0.00;0.00;;;;;;;;;;5003111;28;20111;-82
2022/09/13 13:57:18;;;;;;;0.00;0.00;;;;;;;;;;5003051;28;20030;-81
2022/09/13 13:59:45;;;;;;;0.00;0.00;;;;;;;;;;5068408;28;20122;-82
2022/09/13 14:02:13;;;;;;;0.20;0.20;;;;;;;;;;4999191;28;20451;-81
2022/09/13 14:04:50;;;;;;;0.03;0.03;;;;;;;;;;5016395;28;20063;-81
2022/09/13 14:07:35;;;;;;;0.00;0.00;;;;;;;;;;5037891;28;20464;-81
2022/09/13 14:10:13;;;;;;;0.00;0.00;;;;;;;;;;4981222;28;20043;-81
2022/09/13 14:12:45;;;;;;;23.20;4.32;;;;;;;;;;4987191;28;20430;-82
2022/09/13 14:15:14;;;;;;;0.00;0.00;;;;;;;;;;4989051;28;20121;-80
2022/09/13 14:18:02;;;;;;;0.13;0.13;;;;;;;;;;5018110;28;20039;-81
2022/09/13 14:20:28;;;;;;;0.00;0.00;;;;;;;;;;5002613;28;20024;-81
2022/09/13 14:23:13;;;;;;;1.60;1.55;;;;;;;;;;4982236;28;20034;-81
2022/09/13 14:25:40;;;;;;;0.05;0.05;;;;;;;;;;4998896;28;20063;-80
2022/09/13 14:28:06;;;;;;;0.00;0.00;;;;;;;;;;5069871;28;20037;-80
2022/09/13 14:30:37;;;;;;;0.00;0.00;;;;;;;;;;4992158;28;20094;-80
2022/09/13 14:33:07;;;;;;;0.00;0.00;;;;;;;;;;4997989;28;21677;-80
2022/09/13 14:35:34;;;;;;;0.00;0.00;;;;;;;;;;4988878;28;20353;-81
2022/09/13 14:38:34;;;;;;;0.70;0.70;;;;;;;;;;4983632;28;20087;-81
2022/09/13 14:41:20;;;;;;;0.00;0.00;;;;;;;;;;4931254;28;20439;-80
2022/09/13 14:43:48;;;;;;;0.00;0.00;;;;;;;;;;4986081;28;20027;-80
2022/09/13 14:46:20;;;;;;;0.00;0.00;;;;;;;;;;4975658;28;20409;-81
2022/09/13 14:49:09;;;;;;;0.00;0.00;;;;;;;;;;4985560;28;20030;-81
2022/09/13 14:51:45;;;;;;;0.00;0.00;;;;;;;;;;4996896;28;20050;-81
2022/09/13 14:54:16;;;;;;;0.00;0.00;;;;;;;;;;4996083;28;20070;-81
2022/09/13 14:56:47;;;;;;;0.00;0.00;;;;;;;;;;4984766;28;20022;-81
2022/09/13 14:59:17;;;;;;;0.00;0.00;;;;;;;;;;5004660;28;20138;-81
2022/09/13 15:01:43;;;;;;;0.00;0.00;;;;;;;;;;4989728;28;20118;-81
2022/09/13 15:04:09;;;;;;;0.00;0.00;;;;;;;;;;4996231;28;20026;-81
2022/09/13 15:06:37;;;;;;;1.38;1.35;;;;;;;;;;4984914;28;20022;-80